createdAt,value
2022-12-25T00:00:24.146Z,100095.50
2022-12-25T00:00:56.396Z,100092.28
2022-12-25T00:01:28.351Z,100097.75
2022-12-25T00:02:00.374Z,100098.25
2022-12-25T00:02:32.604Z,100098.72
2022-12-25T00:03:04.725Z,100109.88
2022-12-25T00:03:37.333Z,100109.88
2022-12-25T00:04:09.395Z,100105.88
2022-12-25T00:04:41.841Z,100111.66
2022-12-25T00:05:13.691Z,100114.91
2022-12-25T00:05:45.554Z,100116.84
2022-12-25T00:06:18.376Z,100111.84
2022-12-25T00:06:50.326Z,100119.28
2022-12-25T00:07:22.184Z,100114.25
2022-12-25T00:07:54.043Z,100124.91
2022-12-25T00:08:25.933Z,100118.78
2022-12-25T00:08:57.775Z,100124.78
2022-12-25T00:09:30.065Z,100122.84
2022-12-25T00:10:02.020Z,100119.44
2022-12-25T00:10:34.079Z,100132.81
2022-12-25T00:11:09.261Z,100127.84
2022-12-25T00:11:41.391Z,100124.28
2022-12-25T00:12:13.251Z,100127.50
2022-12-25T00:12:45.094Z,100120.56
2022-12-25T00:13:16.918Z,100122.53
2022-12-25T00:13:49.399Z,100124.13
2022-12-25T00:14:21.262Z,100123.31
2022-12-25T00:14:53.366Z,100123.00
2022-12-25T00:15:25.285Z,100126.25
2022-12-25T00:15:57.215Z,100127.19
2022-12-25T00:16:29.369Z,100124.31
2022-12-25T00:17:01.551Z,100131.09
2022-12-25T00:17:33.576Z,100124.50
2022-12-25T00:18:05.475Z,100118.19
2022-12-25T00:18:37.388Z,100117.69
2022-12-25T00:19:09.273Z,100116.06
2022-12-25T00:19:41.230Z,100116.88
2022-12-25T00:20:13.170Z,100117.88
2022-12-25T00:20:45.054Z,100113.97
2022-12-25T00:21:18.259Z,100109.28
2022-12-25T00:21:50.094Z,100119.66
2022-12-25T00:22:22.323Z,100113.81
2022-12-25T00:22:54.649Z,100116.88
2022-12-25T00:23:27.023Z,100120.78
2022-12-25T00:23:59.279Z,100121.72
2022-12-25T00:24:31.143Z,100123.69
2022-12-25T00:25:03.257Z,100131.94
2022-12-25T00:25:35.157Z,100125.94
2022-12-25T00:26:09.220Z,100127.06
2022-12-25T00:26:41.215Z,100131.13
2022-12-25T00:27:13.073Z,100133.84
2022-12-25T00:27:45.372Z,100127.41
2022-12-25T00:28:17.225Z,100129.34
2022-12-25T00:28:53.281Z,100128.84
2022-12-25T00:29:25.229Z,100128.84
2022-12-25T00:29:57.335Z,100125.44
2022-12-25T00:30:29.171Z,100132.72
2022-12-25T00:31:04.805Z,100131.13
2022-12-25T00:31:36.704Z,100127.22
2022-12-25T00:32:08.682Z,100129.50
2022-12-25T00:32:42.101Z,100129.16
2022-12-25T00:33:14.300Z,100131.09
2022-12-25T00:33:48.172Z,100134.47
2022-12-25T00:34:20.056Z,100129.16
2022-12-25T00:34:51.967Z,100133.19
2022-12-25T00:35:23.802Z,100129.81
2022-12-25T00:36:00.373Z,100130.44
2022-12-25T00:36:37.749Z,100129.16
2022-12-25T00:37:13.141Z,100124.13
2022-12-25T00:37:44.995Z,100131.75
2022-12-25T00:38:17.132Z,100133.03
2022-12-25T00:38:49.222Z,100139.50
2022-12-25T00:39:21.218Z,100141.44
2022-12-25T00:39:53.169Z,100140.44
2022-12-25T00:40:25.010Z,100139.03
2022-12-25T00:40:56.881Z,100146.94
2022-12-25T00:41:47.475Z,100147.25
2022-12-25T00:42:19.345Z,100149.66
2022-12-25T00:42:51.517Z,100140.28
2022-12-25T00:43:24.095Z,100146.91
2022-12-25T00:43:55.930Z,100151.91
2022-12-25T00:44:27.738Z,100153.69
2022-12-25T00:45:01.514Z,100149.75
2022-12-25T00:45:33.828Z,100146.84
2022-12-25T00:46:07.298Z,100149.53
2022-12-25T00:46:40.308Z,100152.66
2022-12-25T00:47:12.278Z,100154.59
2022-12-25T00:47:44.229Z,100149.75
2022-12-25T00:48:16.060Z,100157.50
2022-12-25T00:48:48.545Z,100155.25
2022-12-25T00:49:22.874Z,100162.34
2022-12-25T00:49:55.361Z,100163.00
2022-12-25T00:50:27.197Z,100158.78
2022-12-25T00:51:01.872Z,100161.12
2022-12-25T00:51:33.895Z,100157.75
2022-12-25T00:52:06.093Z,100164.28
2022-12-25T00:52:37.977Z,100159.75
2022-12-25T00:53:09.813Z,100162.37
2022-12-25T00:53:41.702Z,100159.75
2022-12-25T00:54:13.898Z,100157.75
2022-12-25T00:54:45.769Z,100157.72
2022-12-25T00:55:17.669Z,100156.41
2022-12-25T00:55:53.369Z,100159.69
2022-12-25T00:56:25.756Z,100164.91
2022-12-25T00:56:57.755Z,100163.81
2022-12-25T00:57:29.609Z,100158.84
2022-12-25T00:58:01.437Z,100167.22
2022-12-25T00:58:34.518Z,100160.78
2022-12-25T00:59:06.470Z,100164.47
2022-12-25T00:59:38.652Z,100173.69
2022-12-25T01:00:10.974Z,100166.44
2022-12-25T01:00:42.837Z,100172.44
2022-12-25T01:01:14.898Z,100171.00
2022-12-25T01:01:47.127Z,100167.62
2022-12-25T01:02:25.798Z,100170.88
2022-12-25T01:02:57.995Z,100167.00
2022-12-25T01:03:30.230Z,100161.47
2022-12-25T01:04:02.248Z,100163.75
2022-12-25T01:04:34.533Z,100172.00
2022-12-25T01:05:07.526Z,100171.16
2022-12-25T01:05:39.354Z,100167.44
2022-12-25T01:06:12.977Z,100169.34
2022-12-25T01:06:44.844Z,100167.59
2022-12-25T01:07:17.762Z,100165.34
2022-12-25T01:07:49.584Z,100171.16
2022-12-25T01:08:21.559Z,100164.38
2022-12-25T01:09:12.032Z,100162.13
2022-12-25T01:10:06.024Z,100166.63
2022-12-25T01:10:38.194Z,100174.56
2022-12-25T01:11:10.030Z,100173.13
2022-12-25T01:11:41.916Z,100177.47
2022-12-25T01:12:13.756Z,100176.37
2022-12-25T01:12:45.589Z,100174.25
2022-12-25T01:13:17.395Z,100180.41
2022-12-25T01:13:49.236Z,100185.72
2022-12-25T01:14:21.086Z,100185.72
2022-12-25T01:14:52.979Z,100182.81
2022-12-25T01:15:24.924Z,100187.69
2022-12-25T01:15:57.546Z,100180.56
2022-12-25T01:16:29.993Z,100180.66
2022-12-25T01:17:01.833Z,100180.47
2022-12-25T01:17:33.912Z,100185.53
2022-12-25T01:18:07.915Z,100185.25
2022-12-25T01:18:40.555Z,100186.19
2022-12-25T01:19:12.456Z,100188.44
2022-12-25T01:19:44.335Z,100186.72
2022-12-25T01:20:17.869Z,100178.31
2022-12-25T01:20:49.879Z,100184.41
2022-12-25T01:21:22.579Z,100182.59
2022-12-25T01:21:54.445Z,100187.78
2022-12-25T01:22:26.444Z,100180.22
2022-12-25T01:22:58.286Z,100189.09
2022-12-25T01:23:30.104Z,100189.56
2022-12-25T01:24:02.270Z,100185.03
2022-12-25T01:24:34.109Z,100187.88
2022-12-25T01:25:06.676Z,100186.97
2022-12-25T01:25:38.550Z,100181.16
2022-12-25T01:26:12.120Z,100193.63
2022-12-25T01:26:44.297Z,100191.50
2022-12-25T01:27:16.978Z,100193.75
2022-12-25T01:27:48.899Z,100195.34
2022-12-25T01:28:20.748Z,100194.34
2022-12-25T01:28:52.699Z,100194.53
2022-12-25T01:29:24.568Z,100194.56
2022-12-25T01:29:56.393Z,100205.09
2022-12-25T01:30:28.401Z,100200.59
2022-12-25T01:31:00.253Z,100194.25
2022-12-25T01:31:32.483Z,100200.88
2022-12-25T01:32:05.871Z,100196.97
2022-12-25T01:32:37.846Z,100197.97
2022-12-25T01:33:10.092Z,100197.34
2022-12-25T01:33:43.435Z,100199.91
2022-12-25T01:34:15.327Z,100195.19
2022-12-25T01:34:52.085Z,100198.97
2022-12-25T01:35:27.741Z,100196.19
2022-12-25T01:35:59.718Z,100203.69
2022-12-25T01:36:31.577Z,100203.69
2022-12-25T01:37:03.429Z,100202.50
2022-12-25T01:37:35.673Z,100203.81
2022-12-25T01:38:07.535Z,100199.31
2022-12-25T01:38:39.397Z,100203.47
2022-12-25T01:39:11.219Z,100212.19
2022-12-25T01:39:43.090Z,100205.09
2022-12-25T01:40:14.974Z,100206.41
2022-12-25T01:40:46.943Z,100201.88
2022-12-25T01:41:20.832Z,100203.03
2022-12-25T01:41:52.814Z,100208.34
2022-12-25T01:42:24.758Z,100197.66
2022-12-25T01:42:56.970Z,100207.53
2022-12-25T01:43:32.786Z,100207.34
2022-12-25T01:44:13.650Z,100207.06
2022-12-25T01:44:45.426Z,100210.75
2022-12-25T01:45:37.935Z,100205.09
2022-12-25T01:46:09.868Z,100209.44
2022-12-25T01:46:42.818Z,100217.19
2022-12-25T01:47:17.138Z,100218.66
2022-12-25T01:47:48.961Z,100221.56
2022-12-25T01:48:25.005Z,100214.97
2022-12-25T01:49:02.145Z,100220.13
2022-12-25T01:49:37.959Z,100215.44
2022-12-25T01:50:09.939Z,100211.91
2022-12-25T01:50:46.272Z,100203.34
2022-12-25T01:51:51.233Z,100214.19
2022-12-25T01:52:25.325Z,100207.22
2022-12-25T01:52:58.125Z,100210.25
2022-12-25T01:53:30.318Z,100205.38
2022-12-25T01:54:07.011Z,100204.38
2022-12-25T01:54:50.584Z,100203.13
2022-12-25T01:55:23.376Z,100209.87
2022-12-25T01:56:01.938Z,100209.78
2022-12-25T01:56:37.207Z,100213.19
2022-12-25T01:57:17.299Z,100207.31
2022-12-25T01:57:49.629Z,100201.34
2022-12-25T01:58:21.560Z,100204.72
2022-12-25T01:58:55.946Z,100200.53
2022-12-25T01:59:30.315Z,100206.37
2022-12-25T02:00:02.710Z,100193.75
2022-12-25T02:00:36.672Z,100198.53
2022-12-25T02:01:09.060Z,100190.09
2022-12-25T02:01:41.128Z,100193.69
2022-12-25T02:02:13.296Z,100198.44
2022-12-25T02:02:45.756Z,100189.87
2022-12-25T02:03:18.464Z,100199.59
2022-12-25T02:03:51.581Z,100195.38
2022-12-25T02:04:39.176Z,100200.00
2022-12-25T02:05:22.215Z,100195.19
2022-12-25T02:05:54.872Z,100197.94
2022-12-25T02:06:30.643Z,100203.44
2022-12-25T02:07:02.482Z,100206.72
2022-12-25T02:07:37.311Z,100208.84
2022-12-25T02:08:14.449Z,100212.25
2022-12-25T02:08:46.376Z,100212.91
2022-12-25T02:09:19.145Z,100206.25
2022-12-25T02:09:51.923Z,100215.47
2022-12-25T02:10:23.982Z,100211.56
2022-12-25T02:10:55.825Z,100213.13
2022-12-25T02:11:46.585Z,100205.03
2022-12-25T02:12:22.273Z,100212.81
2022-12-25T02:12:54.146Z,100205.88
2022-12-25T02:13:26.625Z,100212.72
2022-12-25T02:13:59.678Z,100212.56
2022-12-25T02:14:35.587Z,100205.09
2022-12-25T02:15:14.221Z,100215.41
2022-12-25T02:15:48.720Z,100211.91
2022-12-25T02:16:26.314Z,100204.97
2022-12-25T02:17:24.878Z,100197.66
2022-12-25T02:18:12.826Z,100204.62
2022-12-25T02:18:51.890Z,100201.25
2022-12-25T02:19:33.271Z,100207.25
2022-12-25T02:20:40.278Z,100208.66
2022-12-25T02:21:27.032Z,100200.59
2022-12-25T02:22:35.087Z,100194.59
2022-12-25T02:23:28.212Z,100201.22
2022-12-25T02:24:27.359Z,100198.00
2022-12-25T02:25:11.046Z,100200.44
2022-12-25T02:25:43.538Z,100195.78
2022-12-25T02:26:58.356Z,100192.22
2022-12-25T02:27:56.191Z,100190.28
2022-12-25T02:28:30.367Z,100213.41
2022-12-25T02:29:17.274Z,100202.75
2022-12-25T02:30:05.412Z,100197.06
2022-12-25T02:30:44.205Z,100202.87
2022-12-25T02:31:34.088Z,100201.25
2022-12-25T02:32:15.916Z,100198.06
2022-12-25T02:33:26.186Z,100201.91
2022-12-25T02:34:06.924Z,100206.47
2022-12-25T02:34:44.548Z,100209.72
2022-12-25T02:35:31.351Z,100202.59
2022-12-25T02:36:10.477Z,100209.53
2022-12-25T02:36:51.107Z,100208.22
2022-12-25T02:37:29.422Z,100215.84
2022-12-25T02:38:08.406Z,100210.66
2022-12-25T02:39:04.846Z,100209.69
2022-12-25T02:39:58.004Z,100217.44
2022-12-25T02:40:38.509Z,100213.56
2022-12-25T02:41:16.208Z,100217.09
2022-12-25T02:41:53.924Z,100220.19
2022-12-25T02:43:02.592Z,100227.63
2022-12-25T02:43:59.764Z,100214.38
2022-12-25T02:44:52.701Z,100219.31
2022-12-25T02:45:52.772Z,100215.75
2022-12-25T02:46:44.931Z,100227.56
2022-12-25T02:47:36.315Z,100219.34
2022-12-25T02:48:28.911Z,100223.25
2022-12-25T02:49:23.995Z,100225.19
2022-12-25T02:50:15.859Z,100222.47
2022-12-25T02:51:07.130Z,100224.06
2022-12-25T02:52:02.217Z,100225.84
2022-12-25T02:53:12.982Z,100225.84
2022-12-25T02:54:04.988Z,100224.03
2022-12-25T02:54:59.240Z,100223.25
2022-12-25T02:55:55.142Z,100230.56
2022-12-25T02:56:48.243Z,100222.91
2022-12-25T02:57:43.488Z,100225.62
2022-12-25T02:58:39.690Z,100233.87
2022-12-25T02:59:32.457Z,100225.16
2022-12-25T03:00:25.019Z,100230.13
2022-12-25T03:01:24.309Z,100223.47
2022-12-25T03:02:15.299Z,100228.53
2022-12-25T03:03:08.504Z,100225.16
2022-12-25T03:04:01.254Z,100224.16
2022-12-25T03:04:52.578Z,100225.09
2022-12-25T03:05:45.715Z,100235.53
2022-12-25T03:06:39.222Z,100231.00
2022-12-25T03:07:16.265Z,100239.88
2022-12-25T03:07:48.497Z,100235.50
2022-12-25T03:08:29.775Z,100236.66
2022-12-25T03:09:23.527Z,100233.28
2022-12-25T03:10:20.265Z,100231.13
2022-12-25T03:11:20.548Z,100230.19
2022-12-25T03:12:02.424Z,100234.81
2022-12-25T03:12:49.190Z,100228.38
2022-12-25T03:13:27.623Z,100232.38
2022-12-25T03:14:21.700Z,100236.09
2022-12-25T03:15:11.998Z,100233.41
2022-12-25T03:16:03.393Z,100238.09
2022-12-25T03:16:54.002Z,100244.63
2022-12-25T03:17:26.725Z,100246.09
2022-12-25T03:18:03.378Z,100251.75
2022-12-25T03:18:35.957Z,100252.91
2022-12-25T03:19:27.112Z,100258.44
2022-12-25T03:20:18.452Z,100251.44
2022-12-25T03:21:10.386Z,100258.06
2022-12-25T03:22:01.265Z,100254.31
2022-12-25T03:22:51.618Z,100255.16
2022-12-25T03:23:47.694Z,100257.31
2022-12-25T03:24:38.384Z,100254.09
2022-12-25T03:25:29.165Z,100249.94
2022-12-25T03:26:19.594Z,100251.69
2022-12-25T03:26:58.031Z,100254.56
2022-12-25T03:27:33.542Z,100248.75
2022-12-25T03:28:06.518Z,100250.19
2022-12-25T03:28:38.351Z,100253.09
2022-12-25T03:29:11.218Z,100254.22
2022-12-25T03:30:02.025Z,100255.53
2022-12-25T03:31:12.509Z,100250.78
2022-12-25T03:31:58.508Z,100259.81
2022-12-25T03:32:51.538Z,100262.16
2022-12-25T03:33:46.100Z,100260.91
2022-12-25T03:34:55.271Z,100263.50
2022-12-25T03:35:34.054Z,100259.56
2022-12-25T03:36:15.869Z,100263.09
2022-12-25T03:37:00.756Z,100265.38
2022-12-25T03:38:10.146Z,100258.69
2022-12-25T03:38:50.860Z,100267.91
2022-12-25T03:39:57.586Z,100269.31
2022-12-25T03:40:48.080Z,100274.66
2022-12-25T03:41:59.715Z,100283.09
2022-12-25T03:42:58.156Z,100268.50
2022-12-25T03:44:07.915Z,100276.81
2022-12-25T03:45:22.356Z,100275.50
2022-12-25T03:46:15.801Z,100280.56
2022-12-25T03:47:13.033Z,100278.47
2022-12-25T03:48:08.058Z,100268.09
2022-12-25T03:49:03.117Z,100265.47
2022-12-25T03:50:05.649Z,100275.53
2022-12-25T03:51:11.506Z,100273.09
2022-12-25T03:52:03.875Z,100278.44
2022-12-25T03:52:56.853Z,100282.41
2022-12-25T03:53:52.309Z,100274.91
2022-12-25T03:54:47.789Z,100278.00
2022-12-25T03:55:39.185Z,100267.25
2022-12-25T03:56:31.115Z,100261.09
2022-12-25T03:57:21.484Z,100266.06
2022-12-25T03:58:12.026Z,100264.50
2022-12-25T03:59:11.283Z,100265.97
2022-12-25T04:00:02.285Z,100269.84
2022-12-25T04:01:00.007Z,100268.09
2022-12-25T04:01:50.951Z,100275.00
2022-12-25T04:02:41.756Z,100275.34
2022-12-25T04:03:32.733Z,100275.00
2022-12-25T04:04:23.284Z,100275.50
2022-12-25T04:05:13.966Z,100279.88
2022-12-25T04:06:04.254Z,100278.34
2022-12-25T04:06:55.654Z,100273.53
2022-12-25T04:07:46.127Z,100285.03
2022-12-25T04:08:36.593Z,100285.13
2022-12-25T04:09:26.969Z,100282.59
2022-12-25T04:10:17.412Z,100279.69
2022-12-25T04:11:07.859Z,100279.25
2022-12-25T04:12:02.526Z,100273.28
2022-12-25T04:12:53.304Z,100275.59
2022-12-25T04:13:43.720Z,100273.50
2022-12-25T04:14:33.987Z,100276.81
2022-12-25T04:15:24.983Z,100274.87
2022-12-25T04:16:15.455Z,100276.22
2022-12-25T04:17:06.434Z,100279.47
2022-12-25T04:17:56.906Z,100271.75
2022-12-25T04:18:47.368Z,100278.25
2022-12-25T04:19:38.008Z,100273.59
2022-12-25T04:20:28.780Z,100278.63
2022-12-25T04:21:19.364Z,100270.75
2022-12-25T04:22:10.206Z,100270.75
2022-12-25T04:23:00.537Z,100281.56
2022-12-25T04:23:51.018Z,100282.88
2022-12-25T04:24:41.453Z,100275.81
2022-12-25T04:25:32.065Z,100278.22
2022-12-25T04:26:22.365Z,100282.28
2022-12-25T04:27:13.456Z,100283.66
2022-12-25T04:28:03.916Z,100287.00
2022-12-25T04:28:54.565Z,100285.03
2022-12-25T04:29:44.897Z,100284.34
2022-12-25T04:30:35.254Z,100287.25
2022-12-25T04:31:25.902Z,100291.22
2022-12-25T04:32:16.913Z,100281.91
2022-12-25T04:33:07.394Z,100285.53
2022-12-25T04:33:57.715Z,100280.31
2022-12-25T04:34:48.376Z,100281.81
2022-12-25T04:35:55.589Z,100290.84
2022-12-25T04:36:27.423Z,100289.16
2022-12-25T04:36:59.549Z,100283.06
2022-12-25T04:37:31.363Z,100286.00
2022-12-25T04:38:03.208Z,100281.81
2022-12-25T04:38:36.553Z,100276.84
2022-12-25T04:39:09.693Z,100282.09
2022-12-25T04:39:41.528Z,100277.47
2022-12-25T04:40:13.506Z,100274.63
2022-12-25T04:40:45.354Z,100270.19
2022-12-25T04:41:17.211Z,100273.66
2022-12-25T04:41:49.062Z,100278.38
2022-12-25T04:42:21.271Z,100280.41
2022-12-25T04:42:53.520Z,100274.87
2022-12-25T04:43:25.621Z,100274.53
2022-12-25T04:43:57.452Z,100272.59
2022-12-25T04:44:29.267Z,100265.13
2022-12-25T04:45:01.123Z,100273.22
2022-12-25T04:45:32.972Z,100280.16
2022-12-25T04:46:06.054Z,100281.44
2022-12-25T04:46:37.960Z,100281.59
2022-12-25T04:47:11.730Z,100277.87
2022-12-25T04:47:44.257Z,100278.13
2022-12-25T04:48:16.138Z,100273.19
2022-12-25T04:48:47.998Z,100278.13
2022-12-25T04:49:19.962Z,100272.50
2022-12-25T04:49:51.809Z,100276.72
2022-12-25T04:50:23.665Z,100272.38
2022-12-25T04:50:56.327Z,100281.00
2022-12-25T04:51:28.176Z,100275.25
2022-12-25T04:51:59.987Z,100278.19
2022-12-25T04:52:37.018Z,100273.84
2022-12-25T04:53:09.187Z,100274.34
2022-12-25T04:53:41.336Z,100277.47
2022-12-25T04:54:13.199Z,100282.03
2022-12-25T04:54:45.085Z,100285.41
2022-12-25T04:55:16.961Z,100287.25
2022-12-25T04:55:49.153Z,100297.63
2022-12-25T04:56:21.717Z,100298.91
2022-12-25T04:56:53.629Z,100296.75
2022-12-25T04:57:25.453Z,100301.13
2022-12-25T04:57:57.288Z,100297.00
2022-12-25T04:58:31.076Z,100296.75
2022-12-25T04:59:02.890Z,100294.31
2022-12-25T04:59:34.731Z,100293.56
2022-12-25T05:00:07.269Z,100289.59
2022-12-25T05:00:39.449Z,100291.69
2022-12-25T05:01:12.336Z,100290.75
2022-12-25T05:01:44.282Z,100298.31
2022-12-25T05:02:16.458Z,100299.22
2022-12-25T05:02:48.566Z,100305.66
2022-12-25T05:03:20.482Z,100298.97
2022-12-25T05:03:52.817Z,100307.38
2022-12-25T05:04:24.812Z,100312.81
2022-12-25T05:04:57.466Z,100306.28
2022-12-25T05:05:29.418Z,100301.78
2022-12-25T05:06:02.319Z,100308.94
2022-12-25T05:06:34.152Z,100304.38
2022-12-25T05:07:05.999Z,100318.22
2022-12-25T05:07:37.911Z,100307.84
2022-12-25T05:08:09.833Z,100315.25
2022-12-25T05:08:41.947Z,100308.19
2022-12-25T05:09:14.081Z,100311.94
2022-12-25T05:09:45.917Z,100305.63
2022-12-25T05:10:17.957Z,100311.81
2022-12-25T05:10:50.127Z,100305.47
2022-12-25T05:11:21.994Z,100310.28
2022-12-25T05:11:53.830Z,100305.53
2022-12-25T05:12:25.674Z,100310.72
2022-12-25T05:12:57.578Z,100303.03
2022-12-25T05:13:29.466Z,100305.03
2022-12-25T05:14:01.434Z,100305.25
2022-12-25T05:14:33.783Z,100307.53
2022-12-25T05:15:06.002Z,100308.22
2022-12-25T05:15:42.225Z,100307.69
2022-12-25T05:16:17.130Z,100311.66
2022-12-25T05:16:49.067Z,100310.22
2022-12-25T05:17:20.947Z,100319.69
2022-12-25T05:17:52.775Z,100314.97
2022-12-25T05:18:24.873Z,100318.75
2022-12-25T05:18:57.420Z,100322.66
2022-12-25T05:19:29.328Z,100316.13
2022-12-25T05:20:02.184Z,100316.13
2022-12-25T05:20:39.680Z,100321.53
2022-12-25T05:21:12.461Z,100321.41
2022-12-25T05:21:44.417Z,100325.06
2022-12-25T05:22:16.237Z,100328.09
2022-12-25T05:22:48.089Z,100318.63
2022-12-25T05:23:20.185Z,100329.06
2022-12-25T05:23:54.903Z,100319.13
2022-12-25T05:24:27.841Z,100319.66
2022-12-25T05:24:59.699Z,100318.37
2022-12-25T05:25:31.939Z,100315.00
2022-12-25T05:26:07.822Z,100320.31
2022-12-25T05:26:39.690Z,100316.78
2022-12-25T05:27:11.567Z,100320.84
2022-12-25T05:27:46.524Z,100317.12
2022-12-25T05:28:22.108Z,100316.78
2022-12-25T05:28:54.916Z,100317.97
2022-12-25T05:29:26.894Z,100320.34
2022-12-25T05:29:58.762Z,100310.47
2022-12-25T05:30:30.601Z,100312.75
2022-12-25T05:31:03.154Z,100319.50
2022-12-25T05:31:35.119Z,100321.78
2022-12-25T05:32:07.045Z,100320.81
2022-12-25T05:32:38.948Z,100313.12
2022-12-25T05:33:10.867Z,100319.63
2022-12-25T05:33:42.783Z,100321.09
2022-12-25T05:34:14.631Z,100313.59
2022-12-25T05:34:46.853Z,100312.19
2022-12-25T05:35:18.697Z,100312.09
2022-12-25T05:35:50.962Z,100311.94
2022-12-25T05:36:23.126Z,100314.59
2022-12-25T05:36:56.471Z,100314.16
2022-12-25T05:37:28.394Z,100315.94
2022-12-25T05:38:00.250Z,100315.44
2022-12-25T05:38:32.596Z,100315.44
2022-12-25T05:39:04.473Z,100323.38
2022-12-25T05:39:36.475Z,100321.91
2022-12-25T05:40:09.058Z,100324.16
2022-12-25T05:40:41.079Z,100319.31
2022-12-25T05:41:12.980Z,100320.94
2022-12-25T05:41:45.242Z,100321.69
2022-12-25T05:42:17.145Z,100312.56
2022-12-25T05:42:49.070Z,100317.50
2022-12-25T05:43:20.949Z,100321.91
2022-12-25T05:43:52.791Z,100319.19
2022-12-25T05:44:24.570Z,100321.09
2022-12-25T05:44:56.405Z,100314.72
2022-12-25T05:45:28.261Z,100319.75
2022-12-25T05:46:06.181Z,100320.41
2022-12-25T05:46:38.115Z,100319.00
2022-12-25T05:47:10.330Z,100324.53
2022-12-25T05:47:42.195Z,100323.00
2022-12-25T05:48:14.042Z,100323.91
2022-12-25T05:48:45.934Z,100328.53
2022-12-25T05:49:17.810Z,100323.12
2022-12-25T05:49:49.620Z,100328.47
2022-12-25T05:50:21.459Z,100329.97
2022-12-25T05:50:53.257Z,100328.47
2022-12-25T05:51:26.153Z,100322.63
2022-12-25T05:51:58.027Z,100320.12
2022-12-25T05:52:33.859Z,100325.75
2022-12-25T05:53:08.580Z,100326.03
2022-12-25T05:53:42.518Z,100325.44
2022-12-25T05:54:14.373Z,100326.09
2022-12-25T05:54:46.530Z,100327.72
2022-12-25T05:55:18.368Z,100328.44
2022-12-25T05:55:50.342Z,100328.28
2022-12-25T05:56:22.249Z,100333.25
2022-12-25T05:56:54.109Z,100336.16
2022-12-25T05:57:28.639Z,100332.09
2022-12-25T05:58:01.049Z,100329.09
2022-12-25T05:58:34.196Z,100333.03
2022-12-25T05:59:06.117Z,100333.72
2022-12-25T05:59:37.990Z,100333.91
2022-12-25T06:00:10.829Z,100336.91
2022-12-25T06:00:44.579Z,100335.53
2022-12-25T06:01:23.776Z,100333.34
2022-12-25T06:01:55.668Z,100332.94
2022-12-25T06:02:27.770Z,100336.59
2022-12-25T06:03:00.196Z,100333.62
2022-12-25T06:03:32.200Z,100328.47
2022-12-25T06:04:10.190Z,100330.59
2022-12-25T06:04:44.187Z,100332.50
2022-12-25T06:05:16.531Z,100331.09
2022-12-25T06:05:50.902Z,100330.69
2022-12-25T06:06:29.663Z,100331.75
2022-12-25T06:07:01.787Z,100328.72
2022-12-25T06:07:34.495Z,100339.94
2022-12-25T06:08:06.501Z,100330.97
2022-12-25T06:08:38.688Z,100334.44
2022-12-25T06:09:16.956Z,100339.16
2022-12-25T06:09:49.280Z,100334.31
2022-12-25T06:10:21.906Z,100337.44
2022-12-25T06:10:54.250Z,100343.50
2022-12-25T06:11:28.213Z,100335.00
2022-12-25T06:12:00.464Z,100335.53
2022-12-25T06:12:35.135Z,100336.44
2022-12-25T06:13:07.330Z,100340.91
2022-12-25T06:13:39.722Z,100343.19
2022-12-25T06:14:15.613Z,100344.25
2022-12-25T06:14:52.643Z,100350.09
2022-12-25T06:15:24.999Z,100343.88
2022-12-25T06:15:57.290Z,100349.34
2022-12-25T06:16:38.446Z,100342.09
2022-12-25T06:17:10.525Z,100345.16
2022-12-25T06:17:42.433Z,100348.34
2022-12-25T06:18:14.383Z,100346.91
2022-12-25T06:18:50.103Z,100343.34
2022-12-25T06:19:22.579Z,100347.03
2022-12-25T06:19:54.891Z,100347.97
2022-12-25T06:20:26.840Z,100349.78
2022-12-25T06:21:05.794Z,100349.78
2022-12-25T06:22:03.404Z,100348.03
2022-12-25T06:22:37.164Z,100344.53
2022-12-25T06:23:33.488Z,100347.12
2022-12-25T06:24:06.172Z,100353.03
2022-12-25T06:24:42.132Z,100346.91
2022-12-25T06:25:20.566Z,100344.72
2022-12-25T06:25:55.664Z,100347.12
2022-12-25T06:26:36.661Z,100345.56
2022-12-25T06:27:14.581Z,100334.69
2022-12-25T06:27:52.363Z,100341.78
2022-12-25T06:28:24.847Z,100338.78
2022-12-25T06:29:02.400Z,100334.72
2022-12-25T06:29:34.794Z,100336.94
2022-12-25T06:30:10.270Z,100342.44
2022-12-25T06:30:44.821Z,100341.09
2022-12-25T06:31:22.959Z,100346.34
2022-12-25T06:31:59.135Z,100346.75
2022-12-25T06:32:32.405Z,100343.88
2022-12-25T06:33:04.736Z,100345.78
2022-12-25T06:33:39.542Z,100344.72
2022-12-25T06:34:16.794Z,100342.72
2022-12-25T06:34:49.231Z,100346.81
2022-12-25T06:35:24.025Z,100341.13
2022-12-25T06:36:06.855Z,100348.72
2022-12-25T06:36:41.816Z,100343.88
2022-12-25T06:37:25.259Z,100350.66
2022-12-25T06:37:57.970Z,100347.41
2022-12-25T06:38:29.800Z,100354.50
2022-12-25T06:39:02.118Z,100353.03
2022-12-25T06:39:33.988Z,100347.22
2022-12-25T06:40:06.593Z,100343.97
2022-12-25T06:40:38.470Z,100342.34
2022-12-25T06:41:15.083Z,100345.59
2022-12-25T06:41:47.768Z,100354.25
2022-12-25T06:42:19.649Z,100346.22
2022-12-25T06:42:52.259Z,100348.13
2022-12-25T06:43:24.397Z,100348.78
2022-12-25T06:43:58.415Z,100350.13
2022-12-25T06:44:30.358Z,100351.72
2022-12-25T06:45:02.356Z,100352.03
2022-12-25T06:45:36.167Z,100350.84
2022-12-25T06:46:11.756Z,100351.09
2022-12-25T06:46:43.939Z,100345.84
2022-12-25T06:47:15.819Z,100346.22
2022-12-25T06:47:47.676Z,100349.56
2022-12-25T06:48:19.572Z,100352.81
2022-12-25T06:48:52.312Z,100347.38
2022-12-25T06:49:27.327Z,100349.50
2022-12-25T06:49:59.285Z,100353.66
2022-12-25T06:50:31.137Z,100354.03
2022-12-25T06:51:04.311Z,100347.88
2022-12-25T06:51:36.254Z,100347.41
2022-12-25T06:52:08.108Z,100347.66
2022-12-25T06:52:39.949Z,100353.41
2022-12-25T06:53:11.888Z,100353.75
2022-12-25T06:53:43.906Z,100352.41
2022-12-25T06:54:16.080Z,100354.28
2022-12-25T06:54:47.943Z,100355.63
2022-12-25T06:55:19.802Z,100357.47
2022-12-25T06:55:51.682Z,100357.31
2022-12-25T06:56:26.921Z,100348.81
2022-12-25T06:56:58.786Z,100354.50
2022-12-25T06:57:30.638Z,100355.25
2022-12-25T06:58:02.499Z,100354.53
2022-12-25T06:58:34.328Z,100358.44
2022-12-25T06:59:09.742Z,100363.88
2022-12-25T06:59:41.863Z,100352.69
2022-12-25T07:00:14.524Z,100354.16
2022-12-25T07:00:46.640Z,100362.34
2022-12-25T07:01:30.669Z,100363.66
2022-12-25T07:02:03.157Z,100360.19
2022-12-25T07:02:35.497Z,100364.00
2022-12-25T07:03:07.619Z,100362.84
2022-12-25T07:03:39.537Z,100364.56
2022-12-25T07:04:18.798Z,100367.13
2022-12-25T07:04:52.092Z,100366.34
2022-12-25T07:05:23.927Z,100363.97
2022-12-25T07:05:55.788Z,100360.62
2022-12-25T07:06:27.902Z,100366.75
2022-12-25T07:07:06.174Z,100379.78
2022-12-25T07:07:40.379Z,100374.62
2022-12-25T07:08:12.254Z,100365.84
2022-12-25T07:08:44.257Z,100371.25